createdAt,value
2024-01-20T00:00:25.996Z,11.15
2024-01-20T00:02:28.211Z,11.57
2024-01-20T00:04:30.438Z,11.48
2024-01-20T00:06:33.584Z,13.77
2024-01-20T00:08:35.955Z,11.48
2024-01-20T00:10:38.531Z,10.80
2024-01-20T00:14:43.620Z,11.35
2024-01-20T00:16:47.222Z,11.48
2024-01-20T00:18:49.364Z,11.32
2024-01-20T00:20:51.929Z,10.70
2024-01-20T00:22:54.646Z,11.75
2024-01-20T00:25:00.345Z,11.77
2024-01-20T00:27:02.965Z,12.48
2024-01-20T00:29:05.278Z,11.55
2024-01-20T00:31:07.534Z,12.15
2024-01-20T00:33:09.957Z,11.65
2024-01-20T00:35:12.488Z,12.70
2024-01-20T00:37:14.813Z,12.93
2024-01-20T00:39:17.015Z,12.45
2024-01-20T00:41:22.435Z,12.07
2024-01-20T00:43:24.950Z,11.93
2024-01-20T00:45:27.039Z,12.40
2024-01-20T00:47:29.158Z,13.43
2024-01-20T00:49:31.267Z,13.32
2024-01-20T00:51:33.474Z,12.38
2024-01-20T00:53:35.585Z,12.32
2024-01-20T00:55:37.697Z,12.73
2024-01-20T00:57:39.814Z,12.15
2024-01-20T00:59:41.854Z,13.45
2024-01-20T01:01:43.996Z,14.18
2024-01-20T01:03:46.697Z,13.52
2024-01-20T01:05:48.825Z,13.07
2024-01-20T01:07:50.994Z,13.05
2024-01-20T01:09:53.274Z,13.15
2024-01-20T01:11:55.467Z,12.93
2024-01-20T01:13:58.024Z,13.10
2024-01-20T01:18:02.224Z,12.65
2024-01-20T01:20:04.567Z,12.73
2024-01-20T01:22:06.776Z,12.82
2024-01-20T01:24:08.926Z,14.20
2024-01-20T01:26:11.083Z,12.70
2024-01-20T01:28:13.146Z,13.27
2024-01-20T01:30:15.285Z,11.02
2024-01-20T01:32:17.434Z,13.77
2024-01-20T01:34:19.702Z,12.43
2024-01-20T01:36:21.795Z,13.77
2024-01-20T01:38:23.958Z,12.95
2024-01-20T01:40:26.583Z,13.23
2024-01-20T01:42:28.688Z,13.18
2024-01-20T01:44:30.820Z,13.82
2024-01-20T01:46:32.935Z,13.65
2024-01-20T01:48:35.424Z,13.15
2024-01-20T01:52:40.052Z,12.77
2024-01-20T01:54:42.093Z,11.73
2024-01-20T01:58:47.081Z,13.00
2024-01-20T02:00:49.383Z,13.20
2024-01-20T02:02:51.499Z,12.93
2024-01-20T02:04:53.530Z,14.30
2024-01-20T02:06:56.105Z,14.50
2024-01-20T02:11:00.573Z,13.80
2024-01-20T02:13:02.836Z,14.43
2024-01-20T02:15:05.322Z,12.23
2024-01-20T02:17:07.850Z,13.80
2024-01-20T02:21:12.281Z,14.32
2024-01-20T02:23:14.352Z,14.07
2024-01-20T02:25:16.562Z,13.18
2024-01-20T02:27:19.099Z,14.25
2024-01-20T02:31:23.231Z,14.75
2024-01-20T02:33:25.472Z,13.57
2024-01-20T02:35:27.624Z,14.20
2024-01-20T02:37:29.721Z,14.43
2024-01-20T02:39:32.573Z,14.32
2024-01-20T02:41:34.658Z,14.43
2024-01-20T02:43:36.721Z,14.20
2024-01-20T02:45:38.837Z,13.50
2024-01-20T02:47:40.966Z,13.95
2024-01-20T02:49:43.219Z,15.07
2024-01-20T02:51:45.462Z,14.52
2024-01-20T02:53:47.515Z,14.50
2024-01-20T02:55:49.653Z,14.18
2024-01-20T02:57:51.732Z,13.48
2024-01-20T02:59:53.872Z,14.20
2024-01-20T03:01:56.049Z,14.68
2024-01-20T03:03:58.297Z,14.27
2024-01-20T03:06:00.425Z,14.85
2024-01-20T03:08:02.489Z,15.55
2024-01-20T03:10:05.135Z,14.40
2024-01-20T03:12:07.583Z,15.45
2024-01-20T03:14:13.516Z,15.38
2024-01-20T03:16:15.626Z,14.05
2024-01-20T03:18:17.806Z,14.40
2024-01-20T03:20:19.923Z,14.38
2024-01-20T03:22:22.073Z,13.90
2024-01-20T03:24:24.284Z,15.88
2024-01-20T03:26:26.788Z,16.02
2024-01-20T03:28:28.814Z,14.30
2024-01-20T03:30:30.964Z,14.07
2024-01-20T03:32:33.201Z,14.43
2024-01-20T03:34:35.431Z,14.95
2024-01-20T03:36:37.609Z,15.23
2024-01-20T03:38:39.681Z,13.63
2024-01-20T03:40:44.930Z,14.50
2024-01-20T03:42:47.178Z,12.65
2024-01-20T03:44:49.263Z,13.93
2024-01-20T03:46:51.284Z,15.07
2024-01-20T03:48:53.755Z,14.20
2024-01-20T03:52:58.119Z,13.95
2024-01-20T03:55:00.443Z,13.50
2024-01-20T03:57:02.591Z,14.15
2024-01-20T03:59:04.681Z,13.15
2024-01-20T04:01:06.910Z,12.80
2024-01-20T04:03:09.121Z,11.90
2024-01-20T04:05:11.352Z,13.00
2024-01-20T04:07:13.468Z,13.10
2024-01-20T04:09:15.577Z,13.57
2024-01-20T04:11:18.722Z,12.25
2024-01-20T04:13:20.950Z,12.05
2024-01-20T04:15:23.071Z,13.40
2024-01-20T04:17:25.252Z,11.98
2024-01-20T04:19:27.369Z,12.27
2024-01-20T04:21:29.619Z,10.77
2024-01-20T04:23:31.676Z,12.00
2024-01-20T04:25:33.676Z,11.73
2024-01-20T04:27:41.446Z,12.52
2024-01-20T04:29:43.674Z,13.02
2024-01-20T04:31:46.623Z,12.35
2024-01-20T04:33:48.811Z,12.68
2024-01-20T04:35:51.108Z,12.82
2024-01-20T04:37:53.277Z,13.27
2024-01-20T04:39:57.349Z,12.55
2024-01-20T04:41:59.421Z,13.07
2024-01-20T04:44:01.462Z,12.55
2024-01-20T04:46:03.676Z,12.20
2024-01-20T04:48:06.240Z,12.45
2024-01-20T04:50:08.692Z,11.75
2024-01-20T04:52:10.724Z,12.20
2024-01-20T04:54:12.873Z,11.88
2024-01-20T04:56:15.199Z,11.82
2024-01-20T04:58:17.361Z,12.77
2024-01-20T05:00:19.679Z,11.73
2024-01-20T05:02:21.787Z,11.13
2024-01-20T05:04:24.092Z,11.63
2024-01-20T05:06:26.401Z,11.15
2024-01-20T05:08:28.484Z,12.15
2024-01-20T05:10:30.594Z,13.00
2024-01-20T05:12:32.652Z,12.40
2024-01-20T05:14:34.751Z,12.38
2024-01-20T05:16:36.780Z,11.20
2024-01-20T05:18:38.992Z,10.70
2024-01-20T05:20:41.177Z,11.77
2024-01-20T05:22:43.737Z,10.93
2024-01-20T05:24:46.095Z,12.77
2024-01-20T05:26:48.132Z,11.77
2024-01-20T05:28:50.226Z,12.43
2024-01-20T05:30:52.320Z,11.05
2024-01-20T05:32:54.462Z,12.40
2024-01-20T05:34:56.655Z,12.43
2024-01-20T05:36:58.792Z,12.18
2024-01-20T05:39:00.939Z,12.25
2024-01-20T05:41:03.000Z,12.70
2024-01-20T05:43:05.565Z,12.38
2024-01-20T05:47:13.013Z,11.05
2024-01-20T05:49:15.291Z,13.20
2024-01-20T05:51:17.545Z,12.90
2024-01-20T05:53:21.208Z,11.93
2024-01-20T05:55:23.345Z,12.65
2024-01-20T05:57:25.486Z,12.20
2024-01-20T05:59:27.517Z,10.07
2024-01-20T06:01:29.934Z,11.48
2024-01-20T06:03:32.065Z,11.52
2024-01-20T06:05:34.343Z,11.07
2024-01-20T06:07:36.404Z,11.63
2024-01-20T06:09:38.680Z,11.13
2024-01-20T06:11:42.231Z,11.50
2024-01-20T06:13:44.338Z,12.23
2024-01-20T06:15:46.738Z,11.95
2024-01-20T06:17:49.019Z,12.15
2024-01-20T06:19:51.181Z,12.38
2024-01-20T06:21:53.349Z,12.05
2024-01-20T06:23:55.703Z,12.23
2024-01-20T06:25:58.210Z,12.50
2024-01-20T06:30:02.403Z,12.60
2024-01-20T06:32:04.756Z,12.05
2024-01-20T06:34:07.112Z,11.32
2024-01-20T06:36:09.351Z,11.23
2024-01-20T06:38:11.636Z,13.13
2024-01-20T06:40:14.003Z,11.73
2024-01-20T06:42:16.278Z,11.50
2024-01-20T06:44:18.554Z,11.82
2024-01-20T06:46:20.577Z,12.43
2024-01-20T06:48:22.829Z,12.45
2024-01-20T06:50:24.908Z,11.90
2024-01-20T06:52:26.913Z,11.63
2024-01-20T06:54:29.167Z,12.95
2024-01-20T06:56:31.293Z,11.85
2024-01-20T06:58:33.354Z,12.90
2024-01-20T07:00:35.524Z,12.65
2024-01-20T07:02:37.699Z,12.82
2024-01-20T07:04:39.801Z,11.52
2024-01-20T07:06:41.881Z,12.10
2024-01-20T07:08:44.015Z,13.10
2024-01-20T07:10:46.851Z,12.68
2024-01-20T07:12:48.948Z,11.90
2024-01-20T07:14:51.056Z,13.27
2024-01-20T07:16:53.602Z,13.85
2024-01-20T07:18:56.293Z,12.77
2024-01-20T07:20:58.578Z,13.27
2024-01-20T07:23:00.605Z,12.57
2024-01-20T07:25:02.995Z,12.13
2024-01-20T07:27:05.132Z,12.40
2024-01-20T07:29:07.204Z,11.82
2024-01-20T07:31:09.354Z,11.13
2024-01-20T07:33:11.578Z,13.35
2024-01-20T07:35:13.801Z,12.35
2024-01-20T07:37:17.667Z,13.30
2024-01-20T07:39:19.997Z,10.63
2024-01-20T07:41:22.115Z,11.35
2024-01-20T07:43:24.172Z,12.80
2024-01-20T07:45:28.422Z,13.40
2024-01-20T07:47:30.609Z,12.95
2024-01-20T07:49:33.353Z,12.35
2024-01-20T07:51:35.756Z,11.52
2024-01-20T07:53:38.001Z,11.70
2024-01-20T07:55:40.139Z,11.98
2024-01-20T07:57:42.334Z,12.45
2024-01-20T07:59:44.414Z,11.88
2024-01-20T08:01:46.512Z,12.38
2024-01-20T08:03:48.749Z,11.43
2024-01-20T08:05:50.898Z,10.98
2024-01-20T08:07:52.935Z,11.88
2024-01-20T08:09:55.014Z,11.98
2024-01-20T08:11:57.197Z,11.30
2024-01-20T08:14:00.143Z,11.75
2024-01-20T08:16:02.212Z,12.02
2024-01-20T08:18:05.110Z,12.32
2024-01-20T08:20:08.165Z,11.65
2024-01-20T08:22:10.254Z,10.65
2024-01-20T08:24:12.406Z,12.88
2024-01-20T08:26:14.967Z,12.63
2024-01-20T08:30:19.076Z,11.10
2024-01-20T08:32:22.924Z,11.77
2024-01-20T08:34:25.266Z,12.45
2024-01-20T08:36:27.409Z,12.85
2024-01-20T08:38:29.500Z,11.85
2024-01-20T08:40:31.623Z,12.18
2024-01-20T08:42:33.866Z,11.85
2024-01-20T08:44:36.304Z,12.75
2024-01-20T08:46:38.320Z,10.85
2024-01-20T08:48:41.171Z,14.02
2024-01-20T08:50:43.405Z,12.57
2024-01-20T08:54:48.362Z,12.40
2024-01-20T08:56:51.045Z,10.82
2024-01-20T09:00:55.148Z,11.98
2024-01-20T09:02:57.504Z,11.73
2024-01-20T09:04:59.830Z,11.75
2024-01-20T09:07:02.085Z,11.85
2024-01-20T09:09:04.314Z,11.80
2024-01-20T09:11:06.363Z,11.73
2024-01-20T09:13:08.621Z,11.93
2024-01-20T09:15:12.208Z,12.95
2024-01-20T09:17:14.419Z,12.50
2024-01-20T09:19:17.236Z,12.95
2024-01-20T09:21:19.572Z,11.77
2024-01-20T09:23:22.022Z,13.05
2024-01-20T09:25:24.135Z,12.70
2024-01-20T09:27:27.102Z,12.27
2024-01-20T09:29:29.249Z,13.52
2024-01-20T09:31:31.504Z,12.13
2024-01-20T09:33:33.722Z,11.90
2024-01-20T09:35:35.911Z,12.50
2024-01-20T09:37:38.262Z,13.85
2024-01-20T09:39:40.639Z,11.15
2024-01-20T09:41:42.785Z,14.23
2024-01-20T09:43:45.742Z,11.38
2024-01-20T09:45:47.954Z,12.55
2024-01-20T09:47:50.135Z,11.77
2024-01-20T09:49:52.405Z,10.45
2024-01-20T09:51:54.583Z,12.15
2024-01-20T09:54:00.660Z,12.00
2024-01-20T09:56:03.751Z,11.60
2024-01-20T09:58:05.941Z,11.15
2024-01-20T10:00:09.673Z,12.00
2024-01-20T10:02:13.050Z,12.00
2024-01-20T10:04:15.526Z,11.35
2024-01-20T10:06:17.754Z,13.27
2024-01-20T10:08:19.981Z,12.07
2024-01-20T10:10:23.437Z,10.45
2024-01-20T10:12:25.805Z,11.85
2024-01-20T10:14:27.997Z,10.73
2024-01-20T10:16:40.363Z,11.27
2024-01-20T10:18:42.492Z,12.85
2024-01-20T10:20:46.842Z,13.05
2024-01-20T10:22:50.622Z,12.15
2024-01-20T10:24:53.787Z,12.43
2024-01-20T10:26:55.949Z,11.75
2024-01-20T10:28:58.474Z,11.63
2024-01-20T10:31:07.681Z,11.48
2024-01-20T10:33:11.144Z,12.52
2024-01-20T10:35:13.935Z,11.25
2024-01-20T10:37:16.265Z,11.30
2024-01-20T10:39:21.563Z,11.98
2024-01-20T10:41:25.511Z,10.68
2024-01-20T10:43:32.025Z,11.18
2024-01-20T10:45:41.796Z,10.85
2024-01-20T10:48:01.701Z,12.00
2024-01-20T10:50:08.612Z,11.75
2024-01-20T10:52:10.937Z,11.27
2024-01-20T10:54:13.579Z,11.80
2024-01-20T10:58:19.143Z,11.60
2024-01-20T11:00:21.656Z,11.60
2024-01-20T11:02:24.312Z,12.95
2024-01-20T11:06:37.241Z,12.73
2024-01-20T11:08:39.435Z,11.27
2024-01-20T11:10:42.667Z,12.00
2024-01-20T11:12:58.517Z,12.77
2024-01-20T11:15:00.814Z,11.48
2024-01-20T11:17:15.846Z,10.57
2024-01-20T11:19:18.088Z,9.90
2024-01-20T11:21:20.797Z,9.75
2024-01-20T11:25:25.609Z,10.73
2024-01-20T11:27:27.811Z,11.43
2024-01-20T11:29:30.064Z,11.32
2024-01-20T11:31:32.352Z,10.93
2024-01-20T11:33:35.104Z,11.75
2024-01-20T11:35:38.547Z,12.02
2024-01-20T11:37:40.673Z,10.32
2024-01-20T11:39:42.895Z,11.15
2024-01-20T11:41:45.686Z,10.02
2024-01-20T11:43:48.096Z,8.95
2024-01-20T11:45:50.814Z,9.98
2024-01-20T11:47:53.028Z,10.77
2024-01-20T11:49:55.924Z,11.65
2024-01-20T11:51:58.348Z,10.55
2024-01-20T11:54:00.455Z,9.70
2024-01-20T11:56:04.389Z,10.13
2024-01-20T11:58:06.462Z,10.15
2024-01-20T12:00:12.265Z,9.70
2024-01-20T12:02:14.564Z,9.75
2024-01-20T12:04:17.219Z,10.02
2024-01-20T12:06:19.521Z,10.10
2024-01-20T12:08:22.060Z,10.15
2024-01-20T12:10:24.103Z,10.95
2024-01-20T12:12:26.897Z,9.98
2024-01-20T12:14:29.187Z,9.82
2024-01-20T12:16:31.336Z,10.23
2024-01-20T12:18:34.497Z,10.43
2024-01-20T12:20:40.049Z,11.30
2024-01-20T12:22:42.109Z,10.07
2024-01-20T12:24:48.359Z,10.27
2024-01-20T12:26:50.747Z,10.63
2024-01-20T12:28:54.461Z,10.15
2024-01-20T12:30:56.571Z,8.88
2024-01-20T12:32:58.890Z,9.77
2024-01-20T12:35:01.080Z,10.40
2024-01-20T12:37:04.520Z,10.77
2024-01-20T12:39:07.570Z,10.25
2024-01-20T12:41:09.692Z,11.27
2024-01-20T12:43:12.334Z,11.63
2024-01-20T12:47:18.649Z,10.90
2024-01-20T12:49:21.671Z,11.75
2024-01-20T12:51:23.986Z,10.35
2024-01-20T12:53:26.317Z,10.77
2024-01-20T12:55:28.421Z,10.30
2024-01-20T12:57:30.522Z,11.07
2024-01-20T12:59:33.022Z,11.23
2024-01-20T13:01:35.537Z,11.45
2024-01-20T13:05:39.850Z,11.70
2024-01-20T13:07:41.993Z,11.68
2024-01-20T13:09:44.513Z,11.90
2024-01-20T13:11:46.591Z,12.35
2024-01-20T13:13:48.823Z,12.13
2024-01-20T13:15:51.133Z,11.82
2024-01-20T13:17:53.431Z,11.90
2024-01-20T13:19:55.588Z,12.52
2024-01-20T13:21:57.676Z,13.25
2024-01-20T13:24:00.931Z,14.07
2024-01-20T13:26:03.229Z,11.00
2024-01-20T13:28:05.750Z,11.63
2024-01-20T13:30:08.676Z,12.38
2024-01-20T13:32:10.859Z,11.20
2024-01-20T13:34:12.943Z,12.70
2024-01-20T13:36:15.062Z,11.68
2024-01-20T13:38:17.122Z,10.77
2024-01-20T13:40:19.327Z,11.50
2024-01-20T13:42:21.473Z,12.43
2024-01-20T13:44:23.819Z,11.48
2024-01-20T13:46:26.334Z,12.20
2024-01-20T13:48:28.534Z,13.90
2024-01-20T13:50:30.841Z,12.48
2024-01-20T13:52:32.871Z,12.57
2024-01-20T13:54:34.989Z,11.48
2024-01-20T13:56:37.036Z,12.40
2024-01-20T13:58:39.476Z,11.55
2024-01-20T14:00:42.605Z,12.20
2024-01-20T14:02:45.804Z,11.20
2024-01-20T14:04:48.104Z,12.45
2024-01-20T14:06:51.673Z,12.48
2024-01-20T14:08:53.916Z,12.70
2024-01-20T14:10:56.334Z,14.27
2024-01-20T14:13:00.794Z,12.05
2024-01-20T14:15:04.256Z,11.43
2024-01-20T14:17:06.458Z,11.27
2024-01-20T14:19:09.337Z,13.02
2024-01-20T14:21:11.856Z,11.48
2024-01-20T14:23:13.950Z,11.48
2024-01-20T14:25:18.091Z,11.32
2024-01-20T14:27:20.416Z,11.50
2024-01-20T14:29:22.572Z,12.23
2024-01-20T14:31:24.772Z,11.57
2024-01-20T14:33:27.105Z,11.18
2024-01-20T14:35:29.248Z,12.40
2024-01-20T14:37:31.383Z,12.10
2024-01-20T14:39:33.618Z,12.25
2024-01-20T14:41:36.088Z,13.05
2024-01-20T14:43:39.099Z,12.57
2024-01-20T14:45:41.334Z,13.07
2024-01-20T14:47:43.517Z,11.88
2024-01-20T14:49:45.883Z,11.82
2024-01-20T14:51:48.264Z,11.05
2024-01-20T14:53:50.942Z,13.10
2024-01-20T14:57:57.708Z,12.15
2024-01-20T15:00:00.042Z,12.63
2024-01-20T15:02:04.637Z,12.98
2024-01-20T15:04:07.714Z,11.65
2024-01-20T15:06:11.057Z,12.13
2024-01-20T15:08:13.168Z,11.60
2024-01-20T15:10:15.376Z,12.73
2024-01-20T15:12:19.119Z,14.23
2024-01-20T15:14:21.574Z,12.50
2024-01-20T15:16:23.795Z,12.35
2024-01-20T15:18:26.039Z,12.82
2024-01-20T15:20:28.446Z,12.05
2024-01-20T15:22:30.622Z,12.65
2024-01-20T15:24:32.876Z,12.52
2024-01-20T15:26:35.152Z,13.15
2024-01-20T15:30:55.801Z,11.75
2024-01-20T15:32:57.959Z,11.38
2024-01-20T15:35:00.228Z,13.60
2024-01-20T15:37:10.426Z,12.63
2024-01-20T15:39:12.544Z,11.40
2024-01-20T15:41:15.718Z,11.38
2024-01-20T15:43:19.171Z,13.52
2024-01-20T15:45:21.363Z,11.00
2024-01-20T15:47:23.490Z,11.55
2024-01-20T15:49:25.774Z,11.63
2024-01-20T15:51:28.004Z,12.43
2024-01-20T15:53:30.158Z,13.20
2024-01-20T15:55:32.181Z,11.68
2024-01-20T15:57:34.377Z,12.05
2024-01-20T15:59:36.426Z,13.40
2024-01-20T16:01:38.604Z,13.10
2024-01-20T16:03:40.902Z,13.02
2024-01-20T16:05:43.102Z,13.48
2024-01-20T16:07:45.270Z,14.35
2024-01-20T16:09:47.457Z,14.82
2024-01-20T16:11:52.890Z,14.60
2024-01-20T16:13:54.998Z,12.93
2024-01-20T16:15:57.062Z,14.23
2024-01-20T16:17:59.288Z,14.02
2024-01-20T16:20:01.474Z,13.68
2024-01-20T16:22:03.818Z,12.80
2024-01-20T16:24:06.193Z,12.05
2024-01-20T16:26:08.353Z,13.65
2024-01-20T16:28:10.410Z,13.35
2024-01-20T16:30:13.061Z,13.88
2024-01-20T16:34:17.301Z,12.65
2024-01-20T16:36:22.515Z,13.43
2024-01-20T16:38:24.723Z,12.73
2024-01-20T16:40:27.149Z,14.25
2024-01-20T16:42:29.523Z,14.35
2024-01-20T16:44:31.760Z,14.05
2024-01-20T16:46:34.629Z,14.02
2024-01-20T16:48:37.099Z,13.77
2024-01-20T16:50:39.268Z,14.13
2024-01-20T16:52:41.517Z,12.75
2024-01-20T16:54:43.810Z,12.98
2024-01-20T16:56:45.960Z,13.65
2024-01-20T16:58:48.066Z,14.35
2024-01-20T17:00:50.403Z,14.65
2024-01-20T17:02:52.696Z,14.13
2024-01-20T17:04:55.015Z,14.57
2024-01-20T17:06:57.304Z,14.90
2024-01-20T17:08:59.465Z,13.50
2024-01-20T17:11:01.577Z,14.45
2024-01-20T17:13:03.780Z,13.82
2024-01-20T17:15:06.896Z,15.05
2024-01-20T17:17:09.336Z,15.65
2024-01-20T17:19:11.660Z,15.68
2024-01-20T17:21:17.587Z,14.05
2024-01-20T17:23:19.836Z,15.60
2024-01-20T17:25:22.183Z,13.90
2024-01-20T17:27:24.779Z,14.90
2024-01-20T17:29:29.126Z,15.60
2024-01-20T17:31:35.033Z,14.57
2024-01-20T17:33:37.192Z,14.63
2024-01-20T17:35:40.141Z,14.90
2024-01-20T17:37:42.213Z,15.23
2024-01-20T17:39:46.000Z,14.85
2024-01-20T17:41:49.472Z,14.85
2024-01-20T17:43:51.641Z,15.05
2024-01-20T17:45:53.803Z,15.20
2024-01-20T17:47:56.072Z,15.88
2024-01-20T17:49:58.243Z,15.80
2024-01-20T17:52:00.298Z,15.50
2024-01-20T17:54:02.487Z,15.02
2024-01-20T17:56:05.056Z,15.65
2024-01-20T18:00:14.149Z,13.30
2024-01-20T18:02:16.628Z,15.05
2024-01-20T18:04:18.790Z,16.33
2024-01-20T18:06:21.469Z,16.52
2024-01-20T18:08:25.553Z,15.43
2024-01-20T18:10:27.718Z,16.42
2024-01-20T18:12:30.265Z,17.63
2024-01-20T18:14:35.149Z,15.98
2024-01-20T18:16:41.260Z,15.68
2024-01-20T18:18:43.400Z,14.15
2024-01-20T18:20:45.623Z,15.65
2024-01-20T18:22:49.111Z,15.73
2024-01-20T18:24:51.275Z,16.00
2024-01-20T18:26:53.964Z,16.60
2024-01-20T18:30:58.081Z,15.70
2024-01-20T18:33:00.404Z,14.27
2024-01-20T18:35:03.311Z,16.92
2024-01-20T18:37:05.974Z,16.60
2024-01-20T18:41:11.045Z,15.60
2024-01-20T18:43:13.153Z,15.68
2024-01-20T18:45:15.360Z,17.42
2024-01-20T18:47:18.019Z,17.67
2024-01-20T18:51:22.504Z,15.98
2024-01-20T18:53:24.668Z,16.23
2024-01-20T18:55:26.931Z,17.80
2024-01-20T18:57:29.226Z,17.38
2024-01-20T18:59:31.386Z,16.30
2024-01-20T19:01:33.999Z,16.90
2024-01-20T19:07:41.610Z,16.23
2024-01-20T19:09:44.549Z,16.13
2024-01-20T19:11:46.830Z,16.65
2024-01-20T19:13:50.153Z,17.17
2024-01-20T19:15:52.297Z,18.30
2024-01-20T19:17:54.658Z,18.80
2024-01-20T19:19:56.885Z,16.50
2024-01-20T19:21:58.981Z,17.00
2024-01-20T19:24:01.556Z,15.82
2024-01-20T19:28:06.036Z,17.25
2024-01-20T19:30:09.064Z,17.63
2024-01-20T19:32:11.283Z,15.90
2024-01-20T19:34:13.507Z,17.75
2024-01-20T19:36:15.748Z,18.50
2024-01-20T19:38:17.924Z,17.27
2024-01-20T19:40:20.153Z,15.55
2024-01-20T19:42:22.282Z,19.25
2024-01-20T19:44:24.395Z,15.52
2024-01-20T19:46:26.454Z,17.00
2024-01-20T19:48:28.673Z,17.35
2024-01-20T19:50:30.840Z,18.95
2024-01-20T19:52:32.921Z,18.98
2024-01-20T19:54:35.202Z,18.98
2024-01-20T19:56:45.568Z,17.77
2024-01-20T19:58:48.357Z,18.20
2024-01-20T20:00:51.406Z,17.92
2024-01-20T20:02:54.085Z,17.80
2024-01-20T20:04:56.200Z,17.83
2024-01-20T20:06:58.380Z,17.63
2024-01-20T20:09:00.456Z,19.83
2024-01-20T20:11:03.002Z,19.33
2024-01-20T20:15:09.692Z,17.50
2024-01-20T20:17:11.803Z,18.23
2024-01-20T20:19:14.151Z,19.20
2024-01-20T20:21:17.168Z,17.05
2024-01-20T20:23:19.288Z,17.10
2024-01-20T20:25:21.468Z,16.88
2024-01-20T20:27:23.660Z,15.98
2024-01-20T20:29:26.020Z,17.27
2024-01-20T20:31:28.386Z,17.55
2024-01-20T20:33:30.675Z,17.67
2024-01-20T20:35:34.431Z,16.45
2024-01-20T20:37:36.537Z,15.93
2024-01-20T20:39:38.700Z,16.45
2024-01-20T20:41:40.977Z,17.55
2024-01-20T20:43:43.729Z,17.13
2024-01-20T20:45:45.987Z,16.02
2024-01-20T20:47:48.208Z,16.73
2024-01-20T20:49:51.727Z,17.17
2024-01-20T20:51:54.200Z,17.42
2024-01-20T20:53:56.834Z,14.80
2024-01-20T20:58:02.239Z,16.92
2024-01-20T21:02:08.334Z,16.88
2024-01-20T21:04:11.584Z,17.55
2024-01-20T21:06:13.905Z,17.77
2024-01-20T21:08:16.248Z,17.42
2024-01-20T21:10:21.077Z,17.30
2024-01-20T21:12:23.338Z,16.67
2024-01-20T21:14:26.341Z,17.25
2024-01-20T21:16:29.531Z,17.45
2024-01-20T21:18:31.766Z,17.60
2024-01-20T21:20:34.133Z,17.88
2024-01-20T21:22:36.643Z,16.42
2024-01-20T21:24:38.724Z,18.05
2024-01-20T21:26:42.143Z,17.33
2024-01-20T21:28:52.138Z,17.88
2024-01-20T21:30:55.098Z,17.88
2024-01-20T21:32:57.323Z,19.00
2024-01-20T21:34:59.490Z,17.35
2024-01-20T21:37:03.736Z,17.58
2024-01-20T21:39:10.911Z,16.85
2024-01-20T21:41:14.729Z,16.73
2024-01-20T21:43:17.001Z,19.08
2024-01-20T21:45:19.061Z,17.00
2024-01-20T21:47:21.165Z,18.58
2024-01-20T21:49:23.466Z,18.67
2024-01-20T21:51:25.681Z,17.25
2024-01-20T21:53:28.767Z,17.42
2024-01-20T21:55:30.844Z,17.85
2024-01-20T21:57:33.434Z,18.80
2024-01-20T22:01:38.073Z,18.35
2024-01-20T22:03:40.579Z,18.60
2024-01-20T22:05:42.805Z,17.85
2024-01-20T22:07:46.272Z,17.45
2024-01-20T22:09:52.166Z,18.40
2024-01-20T22:11:54.256Z,18.02
2024-01-20T22:13:56.686Z,17.55
2024-01-20T22:15:58.887Z,17.08
2024-01-20T22:18:01.124Z,17.35
2024-01-20T22:20:03.779Z,17.80
2024-01-20T22:24:08.796Z,17.33
2024-01-20T22:26:20.728Z,18.13
2024-01-20T22:28:22.814Z,17.60
2024-01-20T22:30:25.199Z,18.20
2024-01-20T22:32:27.352Z,18.33
2024-01-20T22:34:32.601Z,19.13
2024-01-20T22:36:35.460Z,18.85
2024-01-20T22:38:38.924Z,18.88
2024-01-20T22:40:41.154Z,19.00
2024-01-20T22:42:43.407Z,17.83
2024-01-20T22:44:46.152Z,19.05
2024-01-20T22:48:52.268Z,19.13
2024-01-20T22:50:55.733Z,20.00
2024-01-20T22:52:58.101Z,19.67
2024-01-20T22:55:00.244Z,19.23
2024-01-20T22:57:05.870Z,18.38
2024-01-20T22:59:08.767Z,19.30
2024-01-20T23:01:12.439Z,18.00
2024-01-20T23:03:14.698Z,19.40
2024-01-20T23:05:17.159Z,19.05
2024-01-20T23:07:19.282Z,19.13
2024-01-20T23:09:22.167Z,19.45
2024-01-20T23:11:24.420Z,18.92
2024-01-20T23:13:27.778Z,19.23
2024-01-20T23:15:30.396Z,19.60
2024-01-20T23:19:36.103Z,18.65
2024-01-20T23:21:38.315Z,19.98
2024-01-20T23:23:40.865Z,20.10
2024-01-20T23:25:43.549Z,21.25
2024-01-20T23:27:45.799Z,22.23
2024-01-20T23:29:48.408Z,24.25
2024-01-20T23:31:50.461Z,22.30
2024-01-20T23:33:52.713Z,23.02
2024-01-20T23:35:54.949Z,22.50
2024-01-20T23:37:57.088Z,22.73
2024-01-20T23:39:59.318Z,22.80
2024-01-20T23:42:01.359Z,22.10
2024-01-20T23:44:04.002Z,24.13
2024-01-20T23:48:08.678Z,21.70
2024-01-20T23:50:11.032Z,23.50
2024-01-20T23:52:13.105Z,22.98
2024-01-20T23:54:15.193Z,22.58
2024-01-20T23:56:17.403Z,24.13
2024-01-20T23:58:19.494Z,22.58
